Time;durP1;ratioP1;P1;durP2;ratioP2;P2;SDS_P1;SDS_P2;PMS_P1;PMS_P2;Temp;Humidity;BMP_temperature;BMP_pressure;BME280_temperature;BME280_humidity;BME280_pressure;Samples;Min_cycle;Max_cycle;Signal;HPM_P1;HPM_P2
2024/03/30 00:02:17;;;;;;;2.85;1.60;;;;;;;;;;5045969;28;20588;-43
2024/03/30 00:04:43;;;;;;;2.60;1.60;;;;;;;;;;5062798;28;20152;-43
2024/03/30 00:07:09;;;;;;;2.53;1.77;;;;;;;;;;5067787;28;20056;-44
2024/03/30 00:09:35;;;;;;;3.40;1.52;;;;;;;;;;5067579;28;20040;-42
2024/03/30 00:12:01;;;;;;;2.38;1.55;;;;;;;;;;5067027;28;20025;-43
2024/03/30 00:14:27;;;;;;;2.30;1.48;;;;;;;;;;5050904;28;20527;-43
2024/03/30 00:16:53;;;;;;;1.45;1.35;;;;;;;;;;5063100;28;20039;-43
2024/03/30 00:19:19;;;;;;;2.85;1.45;;;;;;;;;;5058490;28;20687;-42
2024/03/30 00:21:44;;;;;;;2.03;1.40;;;;;;;;;;5062802;28;20064;-43
2024/03/30 00:24:10;;;;;;;1.45;1.15;;;;;;;;;;5061294;28;20039;-42
2024/03/30 00:26:36;;;;;;;5.03;1.73;;;;;;;;;;5048353;28;20037;-43
2024/03/30 00:29:01;;;;;;;3.58;1.70;;;;;;;;;;5058909;28;20051;-43
2024/03/30 00:31:29;;;;;;;3.15;1.70;;;;;;;;;;5064073;28;20106;-43
2024/03/30 00:33:55;;;;;;;3.05;1.70;;;;;;;;;;5065510;28;20495;-43
2024/03/30 00:36:21;;;;;;;3.55;1.83;;;;;;;;;;5064513;28;20032;-43
2024/03/30 00:38:47;;;;;;;2.95;1.88;;;;;;;;;;5075736;28;20507;-42
2024/03/30 00:41:12;;;;;;;2.78;1.77;;;;;;;;;;5074497;28;20507;-43
2024/03/30 00:43:38;;;;;;;2.60;1.80;;;;;;;;;;5076948;28;20070;-42
2024/03/30 00:46:04;;;;;;;2.20;1.70;;;;;;;;;;5069579;28;20820;-42
2024/03/30 00:48:30;;;;;;;3.78;1.67;;;;;;;;;;5065894;28;20036;-45
2024/03/30 00:50:55;;;;;;;2.20;1.60;;;;;;;;;;5065185;28;20094;-42
2024/03/30 00:53:21;;;;;;;2.65;1.58;;;;;;;;;;5063282;28;20036;-43
2024/03/30 00:55:54;;;;;;;2.75;1.98;;;;;;;;;;5064592;28;20047;-43
2024/03/30 00:58:20;;;;;;;3.30;1.50;;;;;;;;;;5067326;28;20035;-43
2024/03/30 01:00:46;;;;;;;3.33;1.75;;;;;;;;;;5063532;28;20131;-43
2024/03/30 01:03:12;;;;;;;4.95;1.70;;;;;;;;;;5065164;28;20500;-42
2024/03/30 01:05:37;;;;;;;2.70;1.42;;;;;;;;;;5074173;28;20039;-42
2024/03/30 01:08:04;;;;;;;3.95;2.03;;;;;;;;;;5072603;28;20486;-42
2024/03/30 01:10:29;;;;;;;3.28;1.80;;;;;;;;;;5075011;28;20114;-42
2024/03/30 01:12:55;;;;;;;3.03;2.08;;;;;;;;;;5073055;28;20415;-43
2024/03/30 01:15:21;;;;;;;2.08;1.48;;;;;;;;;;5069430;28;20067;-41
2024/03/30 01:17:47;;;;;;;2.78;1.75;;;;;;;;;;5070872;28;20067;-41
2024/03/30 01:20:13;;;;;;;2.17;1.80;;;;;;;;;;5074126;28;20055;-43
2024/03/30 01:22:39;;;;;;;2.67;1.83;;;;;;;;;;5057704;28;20617;-44
2024/03/30 01:25:06;;;;;;;1.65;1.35;;;;;;;;;;5072556;28;20118;-45
2024/03/30 01:27:32;;;;;;;3.20;1.77;;;;;;;;;;5069240;28;20106;-42
2024/03/30 01:30:05;;;;;;;3.65;1.65;;;;;;;;;;5064229;28;20065;-44
2024/03/30 01:32:32;;;;;;;1.80;1.63;;;;;;;;;;5064670;28;20033;-41
2024/03/30 01:34:58;;;;;;;3.75;1.75;;;;;;;;;;5065605;28;20575;-43
2024/03/30 01:37:23;;;;;;;3.63;1.70;;;;;;;;;;5065180;28;20213;-42
2024/03/30 01:39:49;;;;;;;2.85;1.50;;;;;;;;;;5062368;28;20081;-42
2024/03/30 01:42:15;;;;;;;2.90;1.60;;;;;;;;;;5024847;28;20420;-42
2024/03/30 01:44:41;;;;;;;2.65;1.80;;;;;;;;;;5063278;28;20036;-41
2024/03/30 01:47:06;;;;;;;2.40;1.83;;;;;;;;;;5066193;28;20102;-43
2024/03/30 01:49:33;;;;;;;2.58;1.85;;;;;;;;;;5057373;28;20541;-43
2024/03/30 01:51:59;;;;;;;3.85;2.05;;;;;;;;;;5060218;28;20021;-43
2024/03/30 01:54:25;;;;;;;2.10;1.42;;;;;;;;;;5064455;28;20139;-42
2024/03/30 01:56:52;;;;;;;2.97;1.60;;;;;;;;;;5031185;28;20032;-43
2024/03/30 01:59:18;;;;;;;3.22;1.90;;;;;;;;;;5063157;28;20036;-43
2024/03/30 02:01:46;;;;;;;3.25;1.52;;;;;;;;;;5070456;28;20082;-42
2024/03/30 02:04:14;;;;;;;5.05;2.05;;;;;;;;;;5056535;28;20040;-42
2024/03/30 02:06:40;;;;;;;2.78;1.70;;;;;;;;;;5047433;28;20566;-44
2024/03/30 02:09:10;;;;;;;2.20;1.60;;;;;;;;;;5063855;28;20036;-43
2024/03/30 02:11:37;;;;;;;3.22;1.35;;;;;;;;;;5063856;28;20032;-42
2024/03/30 02:14:03;;;;;;;3.83;1.83;;;;;;;;;;5060011;28;20090;-44
2024/03/30 02:16:32;;;;;;;2.58;1.55;;;;;;;;;;5055946;28;20040;-42
2024/03/30 02:18:58;;;;;;;2.25;1.50;;;;;;;;;;5042904;28;20036;-42
2024/03/30 02:21:24;;;;;;;1.92;1.50;;;;;;;;;;5056428;28;20475;-41
2024/03/30 02:23:49;;;;;;;2.03;1.58;;;;;;;;;;5065010;28;20075;-43
2024/03/30 02:26:15;;;;;;;5.93;1.02;;;;;;;;;;5063729;28;20854;-43
2024/03/30 02:28:42;;;;;;;5.63;1.80;;;;;;;;;;5065213;28;20610;-42
2024/03/30 02:31:08;;;;;;;3.50;1.60;;;;;;;;;;5059173;28;20132;-43
2024/03/30 02:33:34;;;;;;;2.08;1.50;;;;;;;;;;5065103;28;20086;-41
2024/03/30 02:36:00;;;;;;;2.72;1.65;;;;;;;;;;5064838;28;20032;-43
2024/03/30 02:38:26;;;;;;;2.95;1.70;;;;;;;;;;5047575;28;20512;-44
2024/03/30 02:40:53;;;;;;;3.03;1.70;;;;;;;;;;5056940;28;20090;-43
2024/03/30 02:43:19;;;;;;;2.03;1.52;;;;;;;;;;5059937;28;20127;-43
2024/03/30 02:45:45;;;;;;;2.50;1.80;;;;;;;;;;5056599;28;20048;-43
2024/03/30 02:48:10;;;;;;;2.17;1.40;;;;;;;;;;5061574;28;20033;-43
2024/03/30 02:50:36;;;;;;;2.72;1.58;;;;;;;;;;5060672;28;20106;-42
2024/03/30 02:53:02;;;;;;;1.67;1.45;;;;;;;;;;5060834;28;20149;-41
2024/03/30 02:55:27;;;;;;;2.90;1.70;;;;;;;;;;5064492;28;20117;-44
2024/03/30 02:57:53;;;;;;;2.78;1.60;;;;;;;;;;5063287;28;20813;-42
2024/03/30 03:00:19;;;;;;;6.65;3.53;;;;;;;;;;5045277;28;20097;-44
2024/03/30 03:02:44;;;;;;;3.70;2.72;;;;;;;;;;5060239;28;20127;-43
2024/03/30 03:05:10;;;;;;;2.42;1.35;;;;;;;;;;5062816;28;20041;-43
2024/03/30 03:07:39;;;;;;;2.45;1.80;;;;;;;;;;5044670;28;20037;-43
2024/03/30 03:10:06;;;;;;;1.67;1.38;;;;;;;;;;5061385;28;20033;-43
2024/03/30 03:12:31;;;;;;;4.40;1.60;;;;;;;;;;5063393;28;20040;-43
2024/03/30 03:14:57;;;;;;;2.53;1.63;;;;;;;;;;5062826;28;20048;-42
2024/03/30 03:17:23;;;;;;;2.83;1.83;;;;;;;;;;5062975;28;20541;-42
2024/03/30 03:19:48;;;;;;;2.70;1.50;;;;;;;;;;5062462;28;20043;-43
2024/03/30 03:22:14;;;;;;;5.78;1.90;;;;;;;;;;5046825;28;20466;-43
2024/03/30 03:24:40;;;;;;;2.10;1.60;;;;;;;;;;5045591;28;20074;-43
2024/03/30 03:27:05;;;;;;;2.30;1.90;;;;;;;;;;5067888;28;20040;-43
2024/03/30 03:29:33;;;;;;;2.03;1.73;;;;;;;;;;5068216;28;20032;-41
2024/03/30 03:31:58;;;;;;;2.28;1.75;;;;;;;;;;5068416;28;20662;-43
2024/03/30 03:34:24;;;;;;;3.15;1.60;;;;;;;;;;5063686;28;20037;-43
2024/03/30 03:36:50;;;;;;;1.90;1.33;;;;;;;;;;5069000;28;20040;-42
2024/03/30 03:39:17;;;;;;;2.83;1.40;;;;;;;;;;5068206;28;20040;-42
2024/03/30 03:41:43;;;;;;;1.65;1.35;;;;;;;;;;5048069;28;20067;-42
2024/03/30 03:44:11;;;;;;;2.10;1.70;;;;;;;;;;5062526;28;20595;-42
2024/03/30 03:46:37;;;;;;;1.43;1.30;;;;;;;;;;5077485;28;20025;-43
2024/03/30 03:49:03;;;;;;;3.25;1.80;;;;;;;;;;5058982;28;20045;-43
2024/03/30 03:51:30;;;;;;;2.08;1.38;;;;;;;;;;5062346;28;20056;-42
2024/03/30 03:53:55;;;;;;;3.22;1.88;;;;;;;;;;5062049;28;20053;-44
2024/03/30 03:56:21;;;;;;;2.75;1.45;;;;;;;;;;5053641;28;20036;-43
2024/03/30 03:58:47;;;;;;;2.70;1.77;;;;;;;;;;5066633;28;20062;-42
2024/03/30 04:01:14;;;;;;;3.72;1.60;;;;;;;;;;5052107;28;20036;-43
2024/03/30 04:03:41;;;;;;;3.22;1.33;;;;;;;;;;5066062;28;20510;-41
2024/03/30 04:06:11;;;;;;;2.20;1.58;;;;;;;;;;5062045;28;20036;-42
2024/03/30 04:08:36;;;;;;;4.47;2.00;;;;;;;;;;5066493;28;20472;-42
2024/03/30 04:11:04;;;;;;;2.35;1.75;;;;;;;;;;5066571;28;20820;-42
2024/03/30 04:13:29;;;;;;;3.22;1.73;;;;;;;;;;5068028;28;20457;-42
2024/03/30 04:15:59;;;;;;;2.63;1.52;;;;;;;;;;5067567;28;20036;-42
2024/03/30 04:18:25;;;;;;;1.70;1.38;;;;;;;;;;5066745;28;20455;-41
2024/03/30 04:20:57;;;;;;;2.03;1.50;;;;;;;;;;5047548;28;20037;-41
2024/03/30 04:23:23;;;;;;;2.40;1.08;;;;;;;;;;5066565;28;20036;-43
2024/03/30 04:25:59;;;;;;;2.35;1.90;;;;;;;;;;5066190;28;20112;-43
2024/03/30 04:28:24;;;;;;;1.88;1.35;;;;;;;;;;5046911;28;20127;-43
2024/03/30 04:30:54;;;;;;;1.95;1.70;;;;;;;;;;5064989;28;20115;-41
2024/03/30 04:33:20;;;;;;;2.70;1.55;;;;;;;;;;5049028;28;20051;-42
2024/03/30 04:35:56;;;;;;;5.40;2.10;;;;;;;;;;5065295;28;20063;-44
2024/03/30 04:38:22;;;;;;;4.47;2.00;;;;;;;;;;5063046;28;20041;-44
2024/03/30 04:41:14;;;;;;;3.22;1.40;;;;;;;;;;5066652;28;20036;-42
2024/03/30 04:43:40;;;;;;;3.22;1.80;;;;;;;;;;5062650;28;20040;-42
2024/03/30 04:46:09;;;;;;;4.70;1.67;;;;;;;;;;5057861;28;20064;-44
2024/03/30 04:48:35;;;;;;;6.68;2.25;;;;;;;;;;5062478;28;20043;-44
2024/03/30 04:51:02;;;;;;;2.92;1.83;;;;;;;;;;5063735;28;20125;-43
2024/03/30 04:53:29;;;;;;;4.03;2.28;;;;;;;;;;5065292;28;20040;-43
2024/03/30 04:55:56;;;;;;;2.17;1.33;;;;;;;;;;5065558;28;20044;-42
2024/03/30 04:58:27;;;;;;;3.70;1.95;;;;;;;;;;5064840;28;20036;-45
2024/03/30 05:00:53;;;;;;;1.17;0.98;;;;;;;;;;5058063;28;20424;-46
2024/03/30 05:03:19;;;;;;;2.15;1.50;;;;;;;;;;5047928;28;20036;-43
2024/03/30 05:05:45;;;;;;;4.70;2.00;;;;;;;;;;5064818;28;20101;-43
2024/03/30 05:08:11;;;;;;;3.60;1.80;;;;;;;;;;5064849;28;20447;-44
2024/03/30 05:10:38;;;;;;;2.35;1.30;;;;;;;;;;5065683;28;20040;-44
2024/03/30 05:13:05;;;;;;;3.10;1.73;;;;;;;;;;5064735;28;20044;-43
2024/03/30 05:15:38;;;;;;;1.52;1.42;;;;;;;;;;5066119;28;20038;-45
2024/03/30 05:18:04;;;;;;;2.38;1.55;;;;;;;;;;5067127;28;20458;-42
2024/03/30 05:23:18;;;;;;;4.53;1.70;;;;;;;;;;5064659;28;20048;-45
2024/03/30 05:25:47;;;;;;;2.17;1.50;;;;;;;;;;5065631;28;20032;-46
2024/03/30 05:28:14;;;;;;;3.40;1.50;;;;;;;;;;5048634;28;20150;-44
2024/03/30 05:30:40;;;;;;;5.03;2.08;;;;;;;;;;5046792;28;20530;-45
2024/03/30 05:33:06;;;;;;;4.90;2.55;;;;;;;;;;5048464;28;20040;-44
2024/03/30 05:35:32;;;;;;;2.22;1.73;;;;;;;;;;5062559;28;20134;-43
2024/03/30 05:37:58;;;;;;;4.07;1.60;;;;;;;;;;5066031;28;20062;-44
2024/03/30 05:40:25;;;;;;;2.95;1.80;;;;;;;;;;5063925;28;20041;-44
2024/03/30 05:42:51;;;;;;;3.35;2.22;;;;;;;;;;5059701;28;20048;-47
2024/03/30 05:45:17;;;;;;;2.92;2.03;;;;;;;;;;5047075;28;20040;-43
2024/03/30 05:47:42;;;;;;;4.78;2.75;;;;;;;;;;5052551;28;20032;-44
2024/03/30 05:50:08;;;;;;;4.80;2.10;;;;;;;;;;5062869;28;20028;-43
2024/03/30 05:52:33;;;;;;;4.30;1.80;;;;;;;;;;5061387;28;20037;-43
2024/03/30 05:55:00;;;;;;;4.25;1.83;;;;;;;;;;5055589;28;20020;-45
2024/03/30 05:57:25;;;;;;;5.80;2.08;;;;;;;;;;5064266;28;20072;-45
2024/03/30 05:59:51;;;;;;;4.40;2.20;;;;;;;;;;5058421;28;20103;-44
2024/03/30 06:02:16;;;;;;;3.15;1.90;;;;;;;;;;5046715;28;20056;-44
2024/03/30 06:04:42;;;;;;;9.60;2.15;;;;;;;;;;5053656;28;20039;-45
2024/03/30 06:07:10;;;;;;;3.47;1.83;;;;;;;;;;5066237;28;20044;-44
2024/03/30 06:09:36;;;;;;;5.03;1.83;;;;;;;;;;5046931;28;20504;-45
2024/03/30 06:12:02;;;;;;;2.95;1.83;;;;;;;;;;5063626;28;20046;-45
2024/03/30 06:14:29;;;;;;;4.07;2.03;;;;;;;;;;5061977;28;20127;-44
2024/03/30 06:16:55;;;;;;;4.35;1.70;;;;;;;;;;5064269;28;20028;-44
2024/03/30 06:19:20;;;;;;;2.38;1.80;;;;;;;;;;5064425;28;20044;-47
2024/03/30 06:21:46;;;;;;;2.50;1.60;;;;;;;;;;5063786;28;20122;-50
2024/03/30 06:24:12;;;;;;;3.17;1.95;;;;;;;;;;5057178;28;20037;-47
2024/03/30 06:26:38;;;;;;;4.20;1.73;;;;;;;;;;5047881;28;20040;-48
2024/03/30 06:29:03;;;;;;;3.35;1.40;;;;;;;;;;5067654;28;20044;-43
2024/03/30 06:31:29;;;;;;;4.13;1.83;;;;;;;;;;5065756;28;20028;-45
2024/03/30 06:33:55;;;;;;;4.72;1.60;;;;;;;;;;5063478;28;20040;-46
2024/03/30 06:36:21;;;;;;;4.68;2.20;;;;;;;;;;5041044;28;20029;-47
2024/03/30 06:38:47;;;;;;;4.75;1.67;;;;;;;;;;5060693;28;20036;-49
2024/03/30 06:43:58;;;;;;;5.60;1.88;;;;;;;;;;5043867;28;20036;-50
2024/03/30 06:46:23;;;;;;;4.20;2.28;;;;;;;;;;5045459;28;20166;-46
2024/03/30 06:48:49;;;;;;;1.90;1.52;;;;;;;;;;5046278;28;20127;-47
2024/03/30 06:51:14;;;;;;;3.55;1.60;;;;;;;;;;5041794;28;20044;-45
2024/03/30 06:53:40;;;;;;;4.25;2.00;;;;;;;;;;5045624;28;20064;-47
2024/03/30 06:56:06;;;;;;;5.32;2.00;;;;;;;;;;5061541;28;20036;-47
2024/03/30 06:58:31;;;;;;;2.85;1.70;;;;;;;;;;5065797;28;20043;-45
2024/03/30 07:00:57;;;;;;;3.00;1.40;;;;;;;;;;5069037;28;20089;-45
2024/03/30 07:03:23;;;;;;;2.22;1.40;;;;;;;;;;5068138;28;20038;-47
2024/03/30 07:05:48;;;;;;;5.00;1.40;;;;;;;;;;5068579;28;20031;-48
2024/03/30 07:08:14;;;;;;;2.08;1.60;;;;;;;;;;5067848;28;20548;-46
2024/03/30 07:10:40;;;;;;;3.65;1.35;;;;;;;;;;5051366;28;20904;-47
2024/03/30 07:13:05;;;;;;;5.60;1.52;;;;;;;;;;5069206;28;20071;-48
2024/03/30 07:15:31;;;;;;;8.60;1.90;;;;;;;;;;5056613;28;20033;-48
2024/03/30 07:17:58;;;;;;;2.42;1.65;;;;;;;;;;5048147;28;20451;-47
2024/03/30 07:20:24;;;;;;;4.43;1.67;;;;;;;;;;5037475;28;20117;-45
2024/03/30 07:22:49;;;;;;;1.98;1.38;;;;;;;;;;5068355;28;20547;-49
2024/03/30 07:25:15;;;;;;;5.50;1.30;;;;;;;;;;5088245;28;20576;-45
2024/03/30 07:27:41;;;;;;;2.33;1.80;;;;;;;;;;5088261;28;20043;-48
2024/03/30 07:30:09;;;;;;;6.00;1.60;;;;;;;;;;5087799;28;20504;-62
2024/03/30 07:32:35;;;;;;;5.07;1.60;;;;;;;;;;5071148;28;20040;-61
2024/03/30 07:35:01;;;;;;;6.35;1.83;;;;;;;;;;5077138;28;20537;-63
2024/03/30 07:37:30;;;;;;;9.15;1.58;;;;;;;;;;5063949;28;20045;-45
2024/03/30 07:39:55;;;;;;;4.85;1.23;;;;;;;;;;5066264;28;20519;-45
2024/03/30 07:42:21;;;;;;;2.13;1.40;;;;;;;;;;5073089;28;20127;-45
2024/03/30 07:44:47;;;;;;;3.90;1.55;;;;;;;;;;5070192;28;20048;-55
2024/03/30 07:47:13;;;;;;;4.53;1.85;;;;;;;;;;5067452;28;20033;-47
2024/03/30 07:49:39;;;;;;;5.82;1.60;;;;;;;;;;5074425;28;20041;-43
2024/03/30 07:52:05;;;;;;;3.33;1.63;;;;;;;;;;5060088;28;20037;-43
2024/03/30 07:54:31;;;;;;;4.60;1.40;;;;;;;;;;5047262;28;20071;-45
2024/03/30 07:56:57;;;;;;;3.65;1.40;;;;;;;;;;5078866;28;20572;-50
2024/03/30 07:59:23;;;;;;;2.72;1.55;;;;;;;;;;5077990;28;20036;-50
2024/03/30 08:01:49;;;;;;;3.55;1.52;;;;;;;;;;5074041;28;20044;-46
2024/03/30 08:04:15;;;;;;;3.38;1.77;;;;;;;;;;5077345;28;20036;-48
2024/03/30 08:06:48;;;;;;;3.28;1.45;;;;;;;;;;5075746;28;20032;-46
2024/03/30 08:09:15;;;;;;;3.05;1.40;;;;;;;;;;5069498;28;20039;-47
2024/03/30 08:11:43;;;;;;;7.95;4.22;;;;;;;;;;5058287;28;20114;-45
2024/03/30 08:14:09;;;;;;;3.97;1.50;;;;;;;;;;5074359;28;20082;-45
2024/03/30 08:16:35;;;;;;;3.35;1.60;;;;;;;;;;5073396;28;20036;-45
2024/03/30 08:19:03;;;;;;;4.05;1.67;;;;;;;;;;5074833;28;20036;-47
2024/03/30 08:21:30;;;;;;;5.15;1.70;;;;;;;;;;5074722;28;20040;-46
2024/03/30 08:23:55;;;;;;;4.40;1.23;;;;;;;;;;5077275;28;20032;-46
2024/03/30 08:26:21;;;;;;;3.00;1.35;;;;;;;;;;5076092;28;20036;-49
2024/03/30 08:28:47;;;;;;;4.50;1.23;;;;;;;;;;5077705;28;20110;-53
2024/03/30 08:31:13;;;;;;;2.20;1.10;;;;;;;;;;5076329;28;20035;-47
2024/03/30 08:33:39;;;;;;;3.15;1.30;;;;;;;;;;5073400;28;20139;-48
2024/03/30 08:36:05;;;;;;;5.47;1.45;;;;;;;;;;5072325;28;20139;-50
2024/03/30 08:38:30;;;;;;;3.85;1.60;;;;;;;;;;5075862;28;20086;-49
2024/03/30 08:40:56;;;;;;;1.33;0.80;;;;;;;;;;5041191;28;20044;-48
2024/03/30 08:43:25;;;;;;;6.20;1.27;;;;;;;;;;5072827;28;20082;-46
2024/03/30 08:45:51;;;;;;;2.30;0.90;;;;;;;;;;5076863;28;20090;-52
2024/03/30 08:48:17;;;;;;;0.70;0.60;;;;;;;;;;5075929;28;20382;-46
2024/03/30 08:50:43;;;;;;;2.03;0.90;;;;;;;;;;5075164;28;20032;-48
2024/03/30 08:53:10;;;;;;;11.68;1.00;;;;;;;;;;5030658;28;1515055;-46
2024/03/30 08:55:36;;;;;;;2.30;1.15;;;;;;;;;;5052525;28;20032;-48
2024/03/30 08:58:02;;;;;;;2.28;1.10;;;;;;;;;;5056288;28;20027;-46
2024/03/30 09:00:27;;;;;;;5.78;1.25;;;;;;;;;;5076647;28;20040;-49
2024/03/30 09:02:54;;;;;;;6.28;1.20;;;;;;;;;;5074868;28;20048;-51
2024/03/30 09:05:21;;;;;;;4.65;1.77;;;;;;;;;;5074460;28;20070;-48
2024/03/30 09:07:46;;;;;;;8.93;1.52;;;;;;;;;;5074414;28;20070;-47
2024/03/30 09:10:12;;;;;;;7.75;1.50;;;;;;;;;;5059349;28;20488;-49
2024/03/30 09:12:38;;;;;;;4.15;1.30;;;;;;;;;;5075341;28;20036;-49
2024/03/30 09:15:04;;;;;;;3.10;1.23;;;;;;;;;;5073913;28;20044;-45
2024/03/30 09:17:30;;;;;;;2.75;1.27;;;;;;;;;;5076602;28;20850;-50
2024/03/30 09:19:56;;;;;;;2.58;1.08;;;;;;;;;;5075340;28;20044;-51
2024/03/30 09:22:21;;;;;;;4.72;1.30;;;;;;;;;;5075844;28;20055;-49
2024/03/30 09:24:49;;;;;;;2.45;1.60;;;;;;;;;;5074444;28;20028;-51
2024/03/30 09:27:14;;;;;;;5.53;1.77;;;;;;;;;;5076850;28;20032;-49
2024/03/30 09:29:40;;;;;;;8.80;1.85;;;;;;;;;;5079673;28;20464;-47
2024/03/30 09:32:06;;;;;;;2.53;0.82;;;;;;;;;;5079935;28;20040;-50
2024/03/30 09:34:32;;;;;;;3.83;1.50;;;;;;;;;;5070288;28;20033;-49
2024/03/30 09:36:58;;;;;;;6.28;1.13;;;;;;;;;;5074135;28;20070;-46
2024/03/30 09:39:23;;;;;;;6.88;3.10;;;;;;;;;;5066756;28;20035;-48
2024/03/30 09:41:50;;;;;;;1.70;0.80;;;;;;;;;;5066687;28;20372;-46
2024/03/30 09:44:16;;;;;;;4.32;0.98;;;;;;;;;;5048335;28;20036;-46
2024/03/30 09:46:45;;;;;;;2.17;1.00;;;;;;;;;;5047657;28;20035;-48
2024/03/30 09:49:12;;;;;;;5.55;0.90;;;;;;;;;;5076373;28;20036;-46
2024/03/30 09:51:39;;;;;;;4.80;0.95;;;;;;;;;;5075785;28;20044;-47
2024/03/30 09:54:05;;;;;;;2.47;0.85;;;;;;;;;;5076456;28;20040;-47
2024/03/30 09:56:32;;;;;;;3.38;1.10;;;;;;;;;;5063859;28;20086;-47
2024/03/30 09:58:58;;;;;;;4.60;0.80;;;;;;;;;;5046147;28;20041;-45
2024/03/30 10:01:24;;;;;;;1.45;0.82;;;;;;;;;;5044617;28;20518;-44
2024/03/30 10:03:50;;;;;;;1.98;0.82;;;;;;;;;;5045053;28;20028;-48
2024/03/30 10:06:18;;;;;;;3.83;0.85;;;;;;;;;;5061853;28;20463;-43
2024/03/30 10:08:46;;;;;;;2.28;1.00;;;;;;;;;;5046676;28;20033;-44
2024/03/30 10:11:13;;;;;;;4.70;1.70;;;;;;;;;;5045229;28;20036;-45
2024/03/30 10:13:54;;;;;;;3.88;1.38;;;;;;;;;;5061597;28;20033;-45
2024/03/30 10:16:20;;;;;;;1.48;0.93;;;;;;;;;;5044910;28;20036;-44
2024/03/30 10:18:46;;;;;;;5.38;1.30;;;;;;;;;;5046125;28;20048;-53
2024/03/30 10:21:13;;;;;;;4.57;1.20;;;;;;;;;;5046217;28;20082;-54
2024/03/30 10:23:38;;;;;;;6.97;1.33;;;;;;;;;;5053893;28;20040;-53
2024/03/30 10:26:12;;;;;;;3.25;1.10;;;;;;;;;;5044381;28;20055;-51
2024/03/30 10:28:37;;;;;;;1.73;1.23;;;;;;;;;;5045878;28;20481;-50
2024/03/30 10:31:03;;;;;;;5.78;1.67;;;;;;;;;;5061647;28;20032;-52
2024/03/30 10:33:29;;;;;;;3.17;1.17;;;;;;;;;;5043583;28;20049;-54
2024/03/30 10:35:57;;;;;;;7.57;1.83;;;;;;;;;;5044537;28;20056;-53
2024/03/30 10:38:23;;;;;;;2.95;1.08;;;;;;;;;;5044518;28;20052;-49
2024/03/30 10:40:49;;;;;;;4.05;1.27;;;;;;;;;;5044425;28;20037;-51
2024/03/30 10:43:14;;;;;;;2.33;0.90;;;;;;;;;;5045806;28;20078;-54
2024/03/30 10:45:40;;;;;;;3.08;1.10;;;;;;;;;;5044195;28;20029;-53
2024/03/30 10:48:06;;;;;;;2.58;1.20;;;;;;;;;;5062346;28;20056;-46
2024/03/30 10:50:32;;;;;;;3.22;1.20;;;;;;;;;;5064194;28;20034;-51
2024/03/30 10:52:58;;;;;;;1.75;0.70;;;;;;;;;;5066509;28;20622;-52
2024/03/30 10:55:23;;;;;;;5.70;1.10;;;;;;;;;;5060896;28;20032;-49
2024/03/30 10:57:53;;;;;;;4.55;1.27;;;;;;;;;;5061454;28;20048;-53
2024/03/30 11:00:18;;;;;;;4.95;1.10;;;;;;;;;;5062094;28;20067;-50
2024/03/30 11:02:45;;;;;;;2.55;1.08;;;;;;;;;;5060897;28;20127;-51
2024/03/30 11:05:12;;;;;;;1.48;0.65;;;;;;;;;;5062357;28;20124;-52
2024/03/30 11:07:38;;;;;;;5.03;1.00;;;;;;;;;;5057620;28;20043;-50
2024/03/30 11:10:05;;;;;;;4.07;0.80;;;;;;;;;;5063121;28;20028;-52
2024/03/30 11:12:33;;;;;;;3.20;1.10;;;;;;;;;;5046879;28;20033;-49
2024/03/30 11:15:00;;;;;;;1.15;0.80;;;;;;;;;;5044326;28;20063;-48
2024/03/30 11:17:31;;;;;;;3.30;0.90;;;;;;;;;;5068188;28;20568;-47
2024/03/30 11:20:13;;;;;;;2.80;0.90;;;;;;;;;;5069745;28;20128;-51
2024/03/30 11:22:54;;;;;;;2.38;0.90;;;;;;;;;;5045385;28;20832;-52
2024/03/30 11:25:21;;;;;;;4.32;1.13;;;;;;;;;;5043894;28;20064;-53
2024/03/30 11:27:50;;;;;;;1.92;1.00;;;;;;;;;;5027281;28;20033;-50
2024/03/30 11:30:27;;;;;;;4.40;1.48;;;;;;;;;;5049834;28;20042;-49
2024/03/30 11:33:00;;;;;;;1.95;1.00;;;;;;;;;;5065488;28;20114;-43
2024/03/30 11:35:27;;;;;;;5.05;1.15;;;;;;;;;;5052376;28;20048;-44
2024/03/30 11:37:55;;;;;;;3.47;1.20;;;;;;;;;;5078225;28;20037;-45
2024/03/30 11:40:52;;;;;;;4.47;1.05;;;;;;;;;;5072366;28;20055;-43
2024/03/30 11:43:40;;;;;;;3.38;1.25;;;;;;;;;;5030614;28;20048;-44
2024/03/30 11:46:06;;;;;;;4.82;1.05;;;;;;;;;;5074311;28;20040;-44
2024/03/30 11:48:34;;;;;;;3.78;1.27;;;;;;;;;;5048518;28;20032;-43
2024/03/30 11:50:59;;;;;;;2.92;0.80;;;;;;;;;;5068396;28;20065;-43
2024/03/30 11:53:25;;;;;;;3.95;0.80;;;;;;;;;;5068138;28;20036;-43
2024/03/30 11:55:53;;;;;;;1.65;1.00;;;;;;;;;;5068591;28;20474;-44
2024/03/30 11:58:25;;;;;;;3.25;1.00;;;;;;;;;;5055146;28;20044;-46
2024/03/30 12:00:55;;;;;;;1.83;0.88;;;;;;;;;;5048652;28;20068;-44
2024/03/30 12:03:23;;;;;;;1.25;0.70;;;;;;;;;;5048674;28;20079;-46
2024/03/30 12:05:52;;;;;;;2.30;0.85;;;;;;;;;;5048700;28;20039;-43
2024/03/30 12:08:17;;;;;;;;;;;;;;;;;;5039883;28;20055;-44
2024/03/30 12:10:51;;;;;;;4.07;1.10;;;;;;;;;;5068630;28;20342;-45
2024/03/30 12:13:19;;;;;;;2.63;1.40;;;;;;;;;;5068644;28;20044;-43
2024/03/30 12:15:45;;;;;;;4.22;1.20;;;;;;;;;;5067185;28;20037;-46
2024/03/30 12:18:11;;;;;;;6.95;0.85;;;;;;;;;;5061325;28;20106;-42
2024/03/30 12:20:37;;;;;;;6.63;1.35;;;;;;;;;;5048301;28;20500;-46
2024/03/30 12:23:06;;;;;;;2.00;0.80;;;;;;;;;;5048275;28;20127;-43
2024/03/30 12:25:32;;;;;;;7.60;1.02;;;;;;;;;;5048252;28;20048;-43
2024/03/30 12:27:59;;;;;;;10.38;1.10;;;;;;;;;;5046704;28;20036;-44
2024/03/30 12:30:24;;;;;;;1.67;0.80;;;;;;;;;;5046787;28;20051;-44
2024/03/30 12:32:51;;;;;;;2.95;0.70;;;;;;;;;;5048292;28;20056;-44
2024/03/30 12:35:16;;;;;;;3.55;1.00;;;;;;;;;;5063516;28;20036;-43
2024/03/30 12:37:42;;;;;;;2.72;1.00;;;;;;;;;;5068492;28;20086;-44
2024/03/30 12:40:08;;;;;;;7.30;1.52;;;;;;;;;;5066701;28;20102;-44
2024/03/30 12:42:34;;;;;;;3.55;1.23;;;;;;;;;;5055997;28;20115;-44
2024/03/30 12:44:59;;;;;;;5.97;1.30;;;;;;;;;;5046964;28;20140;-44
2024/03/30 12:47:25;;;;;;;6.47;1.52;;;;;;;;;;5063365;28;20044;-45
2024/03/30 12:49:51;;;;;;;4.50;1.00;;;;;;;;;;5046141;28;20128;-44
2024/03/30 12:52:16;;;;;;;3.10;1.20;;;;;;;;;;5047815;28;20044;-43
2024/03/30 12:54:42;;;;;;;1.50;0.90;;;;;;;;;;5047736;28;20048;-43
2024/03/30 12:57:08;;;;;;;6.88;1.08;;;;;;;;;;5046488;28;20045;-43
2024/03/30 12:59:34;;;;;;;4.22;1.08;;;;;;;;;;5062858;28;20076;-43
2024/03/30 13:02:03;;;;;;;5.90;1.42;;;;;;;;;;5047484;28;20048;-43
2024/03/30 13:04:30;;;;;;;3.83;1.20;;;;;;;;;;5047667;28;20135;-44
2024/03/30 13:06:56;;;;;;;9.45;1.70;;;;;;;;;;5047856;28;20044;-43
2024/03/30 13:09:22;;;;;;;3.70;1.27;;;;;;;;;;5047492;28;20637;-44
2024/03/30 13:11:48;;;;;;;5.53;1.20;;;;;;;;;;5047801;28;20041;-43
2024/03/30 13:14:14;;;;;;;3.00;1.02;;;;;;;;;;5039891;28;20135;-44
2024/03/30 13:16:40;;;;;;;4.03;1.20;;;;;;;;;;5049674;28;20041;-44
2024/03/30 13:19:12;;;;;;;2.85;0.98;;;;;;;;;;5066171;28;20534;-44
2024/03/30 13:21:41;;;;;;;4.90;1.27;;;;;;;;;;5067477;28;20064;-43
2024/03/30 13:24:07;;;;;;;4.80;1.33;;;;;;;;;;5058222;28;20450;-43
2024/03/30 13:26:33;;;;;;;3.67;1.23;;;;;;;;;;5047325;28;20090;-43
2024/03/30 13:28:59;;;;;;;5.57;1.88;;;;;;;;;;5045924;28;20099;-43
2024/03/30 13:31:25;;;;;;;6.70;1.27;;;;;;;;;;5045996;28;20029;-44
2024/03/30 13:33:50;;;;;;;9.45;1.33;;;;;;;;;;5047671;28;20519;-44
2024/03/30 13:36:16;;;;;;;3.58;1.45;;;;;;;;;;5046734;28;20465;-44
2024/03/30 13:38:42;;;;;;;5.10;1.38;;;;;;;;;;5046109;28;20132;-43
2024/03/30 13:41:07;;;;;;;2.83;1.23;;;;;;;;;;5046520;28;20122;-45
2024/03/30 13:43:33;;;;;;;3.45;1.10;;;;;;;;;;5048616;28;20075;-42
2024/03/30 13:45:59;;;;;;;7.75;1.73;;;;;;;;;;5044881;28;20878;-43
2024/03/30 13:48:25;;;;;;;5.20;1.20;;;;;;;;;;5049789;28;20047;-43
2024/03/30 13:50:52;;;;;;;3.33;1.40;;;;;;;;;;5066211;28;20040;-44
2024/03/30 13:53:18;;;;;;;3.30;0.88;;;;;;;;;;5042746;28;20492;-42
2024/03/30 13:55:44;;;;;;;5.18;1.40;;;;;;;;;;5027904;28;20043;-42
2024/03/30 13:58:15;;;;;;;7.20;1.83;;;;;;;;;;5044908;28;20883;-43
2024/03/30 14:00:42;;;;;;;7.32;1.42;;;;;;;;;;5045645;28;20043;-44
2024/03/30 14:03:08;;;;;;;6.38;1.67;;;;;;;;;;5037653;28;20029;-43
2024/03/30 14:05:36;;;;;;;;;;;;;;;;;;5056987;28;20121;-42
2024/03/30 14:08:03;;;;;;;3.08;0.90;;;;;;;;;;5059863;28;19979;-44
2024/03/30 14:10:29;;;;;;;5.20;1.48;;;;;;;;;;5044658;28;20115;-44
2024/03/30 14:12:55;;;;;;;5.40;1.40;;;;;;;;;;5032902;28;20183;-43
2024/03/30 14:15:20;;;;;;;5.13;1.45;;;;;;;;;;5046308;28;20041;-43
2024/03/30 14:17:48;;;;;;;8.90;1.70;;;;;;;;;;5040361;28;20036;-42
2024/03/30 14:20:16;;;;;;;2.45;1.00;;;;;;;;;;5046443;28;20061;-44
2024/03/30 14:22:42;;;;;;;7.63;1.48;;;;;;;;;;5045190;28;20602;-44
2024/03/30 14:25:08;;;;;;;4.55;1.23;;;;;;;;;;5027693;28;20044;-43
2024/03/30 14:27:34;;;;;;;6.28;1.45;;;;;;;;;;5046605;28;20052;-42
2024/03/30 14:30:00;;;;;;;5.72;1.20;;;;;;;;;;5062023;28;20105;-43
2024/03/30 14:32:26;;;;;;;3.92;1.55;;;;;;;;;;5044634;28;20032;-43
2024/03/30 14:34:53;;;;;;;5.40;2.00;;;;;;;;;;5046200;28;20040;-44
2024/03/30 14:37:20;;;;;;;5.82;1.52;;;;;;;;;;5044442;28;20044;-46
2024/03/30 14:39:46;;;;;;;4.43;2.13;;;;;;;;;;5027829;28;20068;-48
2024/03/30 14:42:15;;;;;;;4.60;1.85;;;;;;;;;;5057899;28;20123;-53
2024/03/30 14:44:41;;;;;;;10.40;2.28;;;;;;;;;;5059638;28;20607;-50
2024/03/30 14:47:07;;;;;;;14.45;2.00;;;;;;;;;;5046202;28;20123;-46